createdAt,value
2019-03-17T00:00:05.668Z,7.80
2019-03-17T00:01:04.779Z,7.80
2019-03-17T00:02:07.348Z,7.90
2019-03-17T00:03:05.416Z,7.80
2019-03-17T00:04:05.501Z,7.80
2019-03-17T00:05:08.137Z,7.80
2019-03-17T00:06:07.702Z,7.80
2019-03-17T00:07:05.027Z,7.90
2019-03-17T00:08:07.797Z,7.80
2019-03-17T00:09:04.765Z,7.80
2019-03-17T00:10:10.081Z,7.80
2019-03-17T00:11:05.164Z,7.80
2019-03-17T00:12:05.207Z,7.80
2019-03-17T00:13:05.292Z,7.80
2019-03-17T00:14:08.023Z,7.80
2019-03-17T00:15:06.358Z,7.80
2019-03-17T00:16:07.321Z,7.80
2019-03-17T00:17:05.357Z,7.80
2019-03-17T00:18:05.571Z,7.80
2019-03-17T00:19:04.718Z,7.80
2019-03-17T00:20:10.058Z,7.80
2019-03-17T00:21:05.137Z,7.80
2019-03-17T00:22:05.235Z,7.80
2019-03-17T00:23:05.272Z,7.80
2019-03-17T00:24:05.389Z,7.80
2019-03-17T00:25:09.404Z,7.80
2019-03-17T00:26:07.811Z,7.70
2019-03-17T00:27:04.754Z,7.70
2019-03-17T00:28:04.927Z,7.70
2019-03-17T00:29:10.054Z,7.70
2019-03-17T00:30:05.012Z,7.70
2019-03-17T00:31:07.674Z,7.80
2019-03-17T00:32:08.307Z,7.70
2019-03-17T00:33:05.350Z,7.80
2019-03-17T00:34:05.537Z,7.70
2019-03-17T00:35:07.232Z,7.70
2019-03-17T00:36:07.781Z,7.70
2019-03-17T00:37:07.499Z,7.70
2019-03-17T00:38:05.483Z,7.70
2019-03-17T00:39:08.089Z,7.70
2019-03-17T00:40:05.043Z,7.70
2019-03-17T00:41:05.091Z,7.70
2019-03-17T00:42:07.677Z,7.70
2019-03-17T00:43:05.765Z,7.70
2019-03-17T00:44:07.573Z,7.70
2019-03-17T00:45:05.539Z,7.70
2019-03-17T00:46:05.718Z,7.70
2019-03-17T00:47:05.020Z,7.60
2019-03-17T00:48:05.170Z,7.60
2019-03-17T00:49:05.395Z,7.60
2019-03-17T00:50:08.117Z,7.60
2019-03-17T00:51:07.656Z,7.60
2019-03-17T00:52:08.201Z,7.60
2019-03-17T00:53:05.182Z,7.60
2019-03-17T00:54:07.749Z,7.50
2019-03-17T00:55:04.709Z,7.50
2019-03-17T00:56:07.312Z,7.50
2019-03-17T00:57:10.323Z,7.50
2019-03-17T00:58:07.848Z,7.50
2019-03-17T00:59:07.430Z,7.50
2019-03-17T01:00:05.480Z,7.50
2019-03-17T01:01:07.246Z,7.50
2019-03-17T01:02:05.250Z,7.50
2019-03-17T01:03:07.926Z,7.50
2019-03-17T01:04:04.954Z,7.50
2019-03-17T01:05:04.983Z,7.50
2019-03-17T01:06:05.230Z,7.50
2019-03-17T01:07:07.921Z,7.50
2019-03-17T01:08:07.385Z,7.50
2019-03-17T01:09:08.172Z,7.50
2019-03-17T01:10:07.932Z,7.50
2019-03-17T01:11:09.955Z,7.50
2019-03-17T01:12:04.925Z,7.50
2019-03-17T01:13:05.006Z,7.50
2019-03-17T01:14:07.647Z,7.50
2019-03-17T01:15:07.232Z,7.50
2019-03-17T01:16:05.206Z,7.50
2019-03-17T01:17:05.421Z,7.50
2019-03-17T01:18:05.505Z,7.40
2019-03-17T01:19:05.586Z,7.40
2019-03-17T01:20:04.824Z,7.50
2019-03-17T01:21:04.949Z,7.50
2019-03-17T01:22:05.318Z,7.40
2019-03-17T01:23:05.463Z,7.50
2019-03-17T01:24:10.697Z,7.40
2019-03-17T01:25:05.625Z,7.40
2019-03-17T01:26:04.892Z,7.40
2019-03-17T01:27:07.507Z,7.40
2019-03-17T01:28:07.953Z,7.40
2019-03-17T01:29:07.417Z,7.40
2019-03-17T01:30:07.937Z,7.40
2019-03-17T01:31:07.462Z,7.40
2019-03-17T01:32:07.879Z,7.40
2019-03-17T01:33:04.842Z,7.40
2019-03-17T01:34:04.954Z,7.40
2019-03-17T01:35:09.382Z,7.40
2019-03-17T01:36:05.160Z,7.40
2019-03-17T01:37:07.941Z,7.40
2019-03-17T01:38:07.496Z,7.40
2019-03-17T01:39:07.927Z,7.40
2019-03-17T01:40:07.377Z,7.40
2019-03-17T01:41:07.937Z,7.40
2019-03-17T01:42:04.923Z,7.40
2019-03-17T01:43:04.992Z,7.30
2019-03-17T01:44:08.249Z,7.30
2019-03-17T01:45:05.235Z,7.30
2019-03-17T01:46:07.974Z,7.30
2019-03-17T01:47:04.960Z,7.30
2019-03-17T01:48:05.079Z,7.40
2019-03-17T01:49:05.179Z,7.30
2019-03-17T01:50:05.257Z,7.30
2019-03-17T01:51:05.320Z,7.30
2019-03-17T01:52:07.914Z,7.30
2019-03-17T01:53:07.488Z,7.30
2019-03-17T01:54:08.031Z,7.30
2019-03-17T01:55:05.173Z,7.30
2019-03-17T01:56:07.778Z,7.30
2019-03-17T01:57:07.379Z,7.30
2019-03-17T01:58:05.489Z,7.30
2019-03-17T01:59:05.651Z,7.30
2019-03-17T02:00:12.337Z,7.20
2019-03-17T02:01:07.819Z,7.30
2019-03-17T02:02:04.769Z,7.30
2019-03-17T02:03:09.907Z,7.20
2019-03-17T02:04:04.846Z,7.20
2019-03-17T02:05:05.102Z,7.30
2019-03-17T02:06:05.352Z,7.20
2019-03-17T02:07:05.523Z,7.20
2019-03-17T02:08:08.135Z,7.20
2019-03-17T02:09:05.095Z,7.20
2019-03-17T02:10:07.756Z,7.20
2019-03-17T02:11:04.734Z,7.20
2019-03-17T02:12:05.391Z,7.20
2019-03-17T02:13:08.074Z,7.20
2019-03-17T02:14:04.821Z,7.20
2019-03-17T02:15:07.477Z,7.20
2019-03-17T02:16:05.466Z,7.20
2019-03-17T02:17:07.435Z,7.20
2019-03-17T02:18:05.504Z,7.20
2019-03-17T02:19:05.684Z,7.20
2019-03-17T02:20:04.835Z,7.20
2019-03-17T02:21:05.012Z,7.20
2019-03-17T02:22:10.254Z,7.20
2019-03-17T02:23:05.223Z,7.20
2019-03-17T02:24:05.417Z,7.10
2019-03-17T02:25:08.162Z,7.20
2019-03-17T02:26:07.838Z,7.20
2019-03-17T02:27:04.794Z,7.20
2019-03-17T02:28:04.912Z,7.20
2019-03-17T02:29:04.975Z,7.20
2019-03-17T02:30:07.556Z,7.20
2019-03-17T02:31:08.077Z,7.20
2019-03-17T02:32:05.023Z,7.20
2019-03-17T02:33:07.608Z,7.20
2019-03-17T02:34:05.681Z,7.20
2019-03-17T02:35:04.823Z,7.20
2019-03-17T02:36:04.895Z,7.20
2019-03-17T02:37:10.027Z,7.20
2019-03-17T02:38:05.069Z,7.20
2019-03-17T02:39:05.247Z,7.20
2019-03-17T02:40:07.925Z,7.30
2019-03-17T02:41:04.887Z,7.20
2019-03-17T02:42:04.996Z,7.30
2019-03-17T02:43:05.115Z,7.30
2019-03-17T02:44:05.621Z,7.30
2019-03-17T02:45:07.345Z,7.30
2019-03-17T02:46:05.373Z,7.20
2019-03-17T02:47:05.439Z,7.30
2019-03-17T02:48:05.481Z,7.30
2019-03-17T02:49:05.712Z,7.30
2019-03-17T02:50:04.806Z,7.30
2019-03-17T02:51:07.434Z,7.30
2019-03-17T02:52:08.019Z,7.30
2019-03-17T02:53:07.684Z,7.30
2019-03-17T02:54:04.687Z,7.30
2019-03-17T02:55:04.813Z,7.30
2019-03-17T02:56:05.529Z,7.30
2019-03-17T02:57:05.634Z,7.30
2019-03-17T02:58:04.811Z,7.40
2019-03-17T02:59:07.555Z,7.30
2019-03-17T03:00:05.710Z,7.30
2019-03-17T03:01:07.372Z,7.30
2019-03-17T03:02:05.336Z,7.30
2019-03-17T03:03:05.636Z,7.30
2019-03-17T03:04:04.939Z,7.30
2019-03-17T03:05:05.107Z,7.30
2019-03-17T03:06:05.128Z,7.30
2019-03-17T03:07:05.247Z,7.30
2019-03-17T03:08:10.632Z,7.30
2019-03-17T03:09:05.683Z,7.30
2019-03-17T03:10:04.768Z,7.30
2019-03-17T03:11:07.436Z,7.30
2019-03-17T03:12:05.389Z,7.30
2019-03-17T03:13:05.483Z,7.30
2019-03-17T03:14:05.529Z,7.30
2019-03-17T03:15:05.794Z,7.40
2019-03-17T03:16:05.536Z,7.40
2019-03-17T03:17:07.842Z,7.30
2019-03-17T03:18:09.959Z,7.40
2019-03-17T03:19:12.486Z,7.40
2019-03-17T03:20:07.992Z,7.40
2019-03-17T03:21:04.975Z,7.40
2019-03-17T03:22:07.631Z,7.40
2019-03-17T03:23:08.283Z,7.40
2019-03-17T03:24:05.494Z,7.40
2019-03-17T03:25:05.554Z,7.40
2019-03-17T03:26:05.724Z,7.40
2019-03-17T03:27:04.844Z,7.40
2019-03-17T03:28:10.223Z,7.30
2019-03-17T03:29:05.240Z,7.30
2019-03-17T03:30:05.352Z,7.40
2019-03-17T03:31:08.056Z,7.30
2019-03-17T03:32:05.122Z,7.30
2019-03-17T03:33:07.873Z,7.30
2019-03-17T03:34:04.846Z,7.30
2019-03-17T03:35:10.117Z,7.30
2019-03-17T03:36:11.157Z,7.30
2019-03-17T03:37:05.181Z,7.30
2019-03-17T03:38:05.373Z,7.30
2019-03-17T03:39:05.612Z,7.30
2019-03-17T03:40:04.734Z,7.30
2019-03-17T03:41:07.357Z,7.30
2019-03-17T03:42:05.320Z,7.30
2019-03-17T03:43:05.445Z,7.30
2019-03-17T03:44:05.510Z,7.30
2019-03-17T03:45:05.710Z,7.30
2019-03-17T03:46:04.997Z,7.30
2019-03-17T03:47:07.641Z,7.30
2019-03-17T03:48:05.774Z,7.30
2019-03-17T03:49:04.857Z,7.30
2019-03-17T03:50:07.548Z,7.30
2019-03-17T03:51:05.769Z,7.30
2019-03-17T03:52:07.491Z,7.30
2019-03-17T03:53:05.462Z,7.30
2019-03-17T03:54:08.273Z,7.30
2019-03-17T03:55:07.840Z,7.30
2019-03-17T03:56:07.458Z,7.30
2019-03-17T03:57:05.458Z,7.20
2019-03-17T03:58:08.021Z,7.30
2019-03-17T03:59:04.939Z,7.30
2019-03-17T04:00:05.627Z,7.30
2019-03-17T04:01:04.867Z,7.20
2019-03-17T04:02:07.546Z,7.20
2019-03-17T04:03:05.519Z,7.30
2019-03-17T04:04:05.661Z,7.30
2019-03-17T04:05:07.308Z,7.20
2019-03-17T04:06:05.254Z,7.20
2019-03-17T04:07:05.350Z,7.30
2019-03-17T04:08:05.422Z,7.30
2019-03-17T04:09:05.523Z,7.30
2019-03-17T04:10:13.324Z,7.30
2019-03-17T04:11:07.954Z,7.30
2019-03-17T04:12:04.931Z,7.30
2019-03-17T04:13:07.537Z,7.30
2019-03-17T04:14:07.959Z,7.30
2019-03-17T04:15:04.956Z,7.20
2019-03-17T04:16:04.861Z,7.30
2019-03-17T04:17:04.941Z,7.30
2019-03-17T04:18:05.146Z,7.30
2019-03-17T04:19:05.362Z,7.30
2019-03-17T04:20:05.492Z,7.20
2019-03-17T04:21:05.603Z,7.30
2019-03-17T04:22:07.233Z,7.20
2019-03-17T04:23:05.192Z,7.20
2019-03-17T04:24:05.418Z,7.20
2019-03-17T04:25:05.627Z,7.20
2019-03-17T04:26:04.760Z,7.20
2019-03-17T04:27:04.828Z,7.20
2019-03-17T04:28:04.941Z,7.20
2019-03-17T04:29:10.217Z,7.10
2019-03-17T04:30:05.247Z,7.10
2019-03-17T04:31:07.891Z,7.10
2019-03-17T04:32:04.975Z,7.10
2019-03-17T04:33:05.178Z,7.10
2019-03-17T04:34:05.380Z,7.10
2019-03-17T04:35:05.631Z,7.10
2019-03-17T04:36:07.317Z,7.00
2019-03-17T04:37:05.291Z,7.00
2019-03-17T04:38:07.825Z,7.00
2019-03-17T04:39:04.904Z,7.00
2019-03-17T04:40:07.542Z,7.00
2019-03-17T04:41:10.579Z,7.00
2019-03-17T04:42:05.493Z,7.00
2019-03-17T04:43:05.601Z,7.00
2019-03-17T04:44:05.167Z,7.00
2019-03-17T04:45:05.298Z,7.00
2019-03-17T04:46:05.458Z,7.00
2019-03-17T04:47:05.518Z,7.10
2019-03-17T04:48:05.588Z,7.00
2019-03-17T04:49:04.648Z,7.10
2019-03-17T04:50:04.882Z,7.10
2019-03-17T04:51:05.152Z,7.10
2019-03-17T04:52:07.834Z,7.10
2019-03-17T04:53:07.376Z,7.20
2019-03-17T04:54:05.308Z,7.10
2019-03-17T04:55:07.935Z,7.10
2019-03-17T04:56:07.650Z,7.20
2019-03-17T04:57:05.677Z,7.20
2019-03-17T04:58:04.821Z,7.20
2019-03-17T04:59:05.065Z,7.20
2019-03-17T05:00:07.735Z,7.20
2019-03-17T05:01:04.715Z,7.20
2019-03-17T05:02:07.375Z,7.30
2019-03-17T05:03:07.884Z,7.30
2019-03-17T05:04:04.929Z,7.20
2019-03-17T05:05:04.979Z,7.30
2019-03-17T05:06:07.582Z,7.30
2019-03-17T05:07:05.619Z,7.30
2019-03-17T05:08:08.093Z,7.40
2019-03-17T05:09:05.210Z,7.40
2019-03-17T05:10:05.489Z,7.30
2019-03-17T05:11:08.195Z,7.40
2019-03-17T05:12:05.218Z,7.40
2019-03-17T05:13:05.298Z,7.40
2019-03-17T05:14:07.946Z,7.40
2019-03-17T05:15:05.061Z,7.40
2019-03-17T05:16:07.857Z,7.40
2019-03-17T05:17:07.530Z,7.40
2019-03-17T05:18:08.019Z,7.40
2019-03-17T05:19:05.038Z,7.40
2019-03-17T05:20:05.349Z,7.40
2019-03-17T05:21:05.662Z,7.50
2019-03-17T05:22:04.921Z,7.40
2019-03-17T05:23:05.986Z,7.50
2019-03-17T05:24:05.294Z,7.50
2019-03-17T05:25:08.397Z,7.40
2019-03-17T05:26:05.385Z,7.50
2019-03-17T05:27:05.635Z,7.50
2019-03-17T05:28:04.761Z,7.50
2019-03-17T05:29:04.929Z,7.50
2019-03-17T05:30:07.661Z,7.40
2019-03-17T05:31:05.754Z,7.50
2019-03-17T05:32:12.629Z,7.40
2019-03-17T05:33:05.688Z,7.40
2019-03-17T05:34:09.932Z,7.40
2019-03-17T05:35:09.990Z,7.40
2019-03-17T05:36:05.001Z,7.50
2019-03-17T05:37:06.359Z,7.50
2019-03-17T05:38:05.035Z,7.40
2019-03-17T05:39:05.178Z,7.40
2019-03-17T05:40:05.586Z,7.40
2019-03-17T05:41:07.294Z,7.50
2019-03-17T05:42:05.384Z,7.40
2019-03-17T05:43:05.700Z,7.40
2019-03-17T05:44:07.563Z,7.50
2019-03-17T05:45:05.627Z,7.40
2019-03-17T05:46:07.853Z,7.50
2019-03-17T05:47:07.868Z,7.50
2019-03-17T05:48:05.184Z,7.50
2019-03-17T05:49:05.373Z,7.50
2019-03-17T05:50:05.422Z,7.50
2019-03-17T05:51:08.060Z,7.50
2019-03-17T05:52:05.132Z,7.50
2019-03-17T05:53:08.109Z,7.50
2019-03-17T05:54:05.055Z,7.50
2019-03-17T05:55:07.636Z,7.50
2019-03-17T05:56:05.650Z,7.50
2019-03-17T05:57:04.776Z,7.50
2019-03-17T05:58:04.890Z,7.50
2019-03-17T05:59:05.015Z,7.60
2019-03-17T06:00:07.702Z,7.70
2019-03-17T06:01:04.680Z,7.70
2019-03-17T06:02:04.902Z,7.80
2019-03-17T06:03:05.254Z,7.80
2019-03-17T06:04:04.938Z,7.90
2019-03-17T06:05:07.744Z,8.20
2019-03-17T06:06:04.790Z,8.20
2019-03-17T06:07:17.936Z,8.30
2019-03-17T06:08:07.439Z,8.40
2019-03-17T06:09:05.421Z,8.40
2019-03-17T06:10:08.211Z,8.50
2019-03-17T06:11:05.256Z,8.50
2019-03-17T06:12:05.471Z,8.60
2019-03-17T06:13:08.072Z,8.80
2019-03-17T06:14:05.011Z,8.80
2019-03-17T06:15:08.062Z,9.00
2019-03-17T06:16:07.591Z,9.10
2019-03-17T06:17:05.633Z,9.10
2019-03-17T06:18:07.479Z,9.40
2019-03-17T06:19:08.082Z,9.50
2019-03-17T06:20:04.996Z,9.50
2019-03-17T06:21:05.137Z,9.60
2019-03-17T06:22:05.302Z,9.70
2019-03-17T06:23:05.636Z,9.80
2019-03-17T06:24:07.405Z,10.00
2019-03-17T06:25:05.375Z,10.00
2019-03-17T06:26:05.419Z,10.10
2019-03-17T06:27:08.168Z,10.30
2019-03-17T06:28:10.286Z,10.30
2019-03-17T06:29:07.906Z,10.40
2019-03-17T06:30:04.943Z,10.30
2019-03-17T06:31:10.131Z,10.40
2019-03-17T06:32:05.163Z,10.40
2019-03-17T06:33:05.389Z,10.50
2019-03-17T06:34:15.709Z,10.60
2019-03-17T06:35:04.673Z,10.60
2019-03-17T06:36:04.973Z,10.60
2019-03-17T06:37:05.232Z,10.70
2019-03-17T06:38:08.031Z,10.80
2019-03-17T06:39:07.656Z,10.90
2019-03-17T06:40:05.674Z,10.90
2019-03-17T06:41:07.367Z,11.00
2019-03-17T06:42:07.887Z,11.10
2019-03-17T06:43:04.821Z,11.10
2019-03-17T06:44:07.854Z,11.30
2019-03-17T06:45:05.029Z,11.30
2019-03-17T06:46:07.668Z,11.50
2019-03-17T06:47:05.933Z,11.50
2019-03-17T06:48:10.389Z,11.60
2019-03-17T06:49:08.198Z,11.60
2019-03-17T06:50:05.235Z,11.60
2019-03-17T06:51:05.405Z,11.60
2019-03-17T06:52:05.427Z,11.60
2019-03-17T06:53:05.528Z,11.70
2019-03-17T06:54:05.583Z,5.20
2019-03-17T06:55:08.149Z,11.50
2019-03-17T06:56:05.018Z,11.60
2019-03-17T06:57:04.961Z,11.50
2019-03-17T06:58:04.932Z,11.60
2019-03-17T06:59:07.398Z,11.60
2019-03-17T07:00:07.774Z,11.60
2019-03-17T07:01:04.648Z,11.60
2019-03-17T07:02:04.706Z,11.60
2019-03-17T07:03:07.369Z,11.70
2019-03-17T07:04:05.317Z,11.60
2019-03-17T07:05:05.279Z,11.70
2019-03-17T07:06:07.745Z,11.70
2019-03-17T07:07:08.213Z,11.80
2019-03-17T07:08:05.146Z,11.70
2019-03-17T07:09:05.174Z,11.80
2019-03-17T07:10:05.131Z,11.80
2019-03-17T07:11:05.086Z,11.80
2019-03-17T07:12:05.062Z,11.90
2019-03-17T07:13:05.002Z,11.90
2019-03-17T07:14:07.537Z,12.00
2019-03-17T07:15:08.137Z,12.00
2019-03-17T07:16:05.032Z,11.90
2019-03-17T07:17:07.557Z,12.00
2019-03-17T07:18:07.906Z,12.00
2019-03-17T07:19:09.936Z,12.00
2019-03-17T07:20:04.826Z,12.00
2019-03-17T07:21:04.813Z,12.00
2019-03-17T07:22:04.977Z,12.00
2019-03-17T07:23:05.033Z,12.10
2019-03-17T07:24:07.562Z,12.20
2019-03-17T07:25:05.485Z,12.10
2019-03-17T07:26:07.964Z,12.20
2019-03-17T07:27:04.868Z,12.20
2019-03-17T07:28:07.558Z,12.30
2019-03-17T07:29:05.526Z,12.30
2019-03-17T07:30:08.155Z,12.30
2019-03-17T07:31:10.234Z,12.30
2019-03-17T07:32:05.028Z,12.30
2019-03-17T07:33:05.058Z,12.40
2019-03-17T07:34:05.112Z,12.40
2019-03-17T07:35:07.737Z,12.40
2019-03-17T07:36:04.647Z,12.40
2019-03-17T07:37:04.709Z,12.40
2019-03-17T07:38:07.268Z,12.40
2019-03-17T07:39:11.460Z,12.40
2019-03-17T07:40:07.911Z,12.40
2019-03-17T07:41:07.449Z,12.50
2019-03-17T07:42:07.944Z,12.50
2019-03-17T07:43:09.967Z,12.50
2019-03-17T07:44:04.959Z,12.50
2019-03-17T07:45:05.016Z,12.50
2019-03-17T07:46:05.019Z,12.50
2019-03-17T07:47:05.038Z,12.50
2019-03-17T07:48:04.990Z,12.50
2019-03-17T07:49:07.563Z,12.50
2019-03-17T07:50:05.520Z,12.50
2019-03-17T07:51:08.176Z,12.50
2019-03-17T07:52:05.082Z,12.50
2019-03-17T07:53:05.100Z,12.50
2019-03-17T07:54:05.233Z,12.50
2019-03-17T07:55:05.279Z,12.50
2019-03-17T07:56:05.353Z,12.50
2019-03-17T07:57:05.061Z,12.50
2019-03-17T07:58:07.614Z,12.50
2019-03-17T07:59:08.621Z,12.50
2019-03-17T08:00:10.717Z,12.50
2019-03-17T08:01:04.598Z,12.50
2019-03-17T08:02:05.442Z,12.50
2019-03-17T08:03:05.479Z,12.50
2019-03-17T08:04:10.671Z,12.50
2019-03-17T08:05:10.724Z,12.60
2019-03-17T08:06:04.756Z,12.50
2019-03-17T08:07:04.775Z,12.60
2019-03-17T08:08:09.573Z,12.60
2019-03-17T08:09:07.505Z,12.60
2019-03-17T08:10:05.371Z,12.60
2019-03-17T08:11:07.962Z,12.70
2019-03-17T08:12:04.922Z,12.70
2019-03-17T08:13:04.970Z,12.70
2019-03-17T08:14:07.474Z,12.70
2019-03-17T08:15:07.896Z,12.70
2019-03-17T08:16:07.438Z,12.70
2019-03-17T08:17:05.340Z,12.70
2019-03-17T08:18:05.279Z,12.70
2019-03-17T08:19:05.220Z,12.80
2019-03-17T08:20:05.204Z,12.80
2019-03-17T08:21:05.297Z,12.80
2019-03-17T08:22:05.376Z,12.80
2019-03-17T08:23:07.901Z,12.80
2019-03-17T08:24:07.222Z,12.80
2019-03-17T08:25:05.156Z,12.80
2019-03-17T08:26:05.170Z,12.90
2019-03-17T08:27:05.162Z,12.90
2019-03-17T08:28:05.360Z,12.90
2019-03-17T08:29:07.893Z,12.80
2019-03-17T08:30:04.693Z,12.80
2019-03-17T08:31:04.650Z,12.90
2019-03-17T08:32:04.692Z,12.80
2019-03-17T08:33:07.480Z,12.80
2019-03-17T08:34:13.019Z,12.80
2019-03-17T08:35:04.901Z,12.80
2019-03-17T08:36:04.888Z,12.80
2019-03-17T08:37:07.387Z,12.80
2019-03-17T08:38:05.324Z,12.70
2019-03-17T08:39:05.403Z,12.70
2019-03-17T08:40:05.438Z,12.80
2019-03-17T08:41:07.999Z,12.90
2019-03-17T08:42:07.398Z,12.90
2019-03-17T08:43:05.304Z,12.90
2019-03-17T08:44:05.244Z,12.90
2019-03-17T08:45:05.289Z,12.90
2019-03-17T08:46:05.357Z,12.90
2019-03-17T08:47:07.886Z,12.90
2019-03-17T08:48:04.737Z,12.80
2019-03-17T08:49:04.679Z,12.80
2019-03-17T08:50:07.204Z,12.80
2019-03-17T08:51:05.081Z,12.70
2019-03-17T08:52:07.677Z,12.80
2019-03-17T08:53:05.513Z,12.80
2019-03-17T08:54:10.688Z,12.70
2019-03-17T08:55:08.091Z,12.70
2019-03-17T08:56:07.638Z,12.70
2019-03-17T08:57:05.619Z,12.60
2019-03-17T08:58:07.150Z,12.70
2019-03-17T08:59:04.959Z,12.60
2019-03-17T09:00:05.022Z,12.70
2019-03-17T09:01:07.607Z,12.70
2019-03-17T09:02:07.995Z,12.70
2019-03-17T09:03:04.859Z,12.70
2019-03-17T09:04:04.899Z,12.70
2019-03-17T09:05:04.964Z,12.70
2019-03-17T09:06:07.640Z,12.80
2019-03-17T09:07:05.607Z,12.70
2019-03-17T09:08:04.736Z,12.80
2019-03-17T09:09:07.423Z,12.80
2019-03-17T09:10:05.294Z,12.80
2019-03-17T09:11:05.285Z,12.90
2019-03-17T09:12:07.825Z,12.90
2019-03-17T09:13:04.720Z,12.90
2019-03-17T09:14:04.716Z,13.00
2019-03-17T09:15:04.648Z,13.00
2019-03-17T09:16:04.606Z,13.00
2019-03-17T09:17:13.990Z,13.10
2019-03-17T09:18:07.163Z,13.20
2019-03-17T09:19:05.001Z,13.10
2019-03-17T09:20:05.008Z,13.20
2019-03-17T09:21:05.053Z,13.20
2019-03-17T09:22:07.600Z,13.30
2019-03-17T09:23:05.417Z,13.30
2019-03-17T09:24:16.502Z,13.30
2019-03-17T09:25:05.576Z,13.30
2019-03-17T09:26:05.751Z,12.80
2019-03-17T09:27:04.822Z,13.30
2019-03-17T09:28:04.897Z,13.20
2019-03-17T09:29:07.551Z,13.20
2019-03-17T09:30:05.471Z,13.20
2019-03-17T09:31:07.368Z,13.20
2019-03-17T09:32:08.157Z,13.20
2019-03-17T09:33:07.563Z,13.20
2019-03-17T09:34:08.033Z,13.20
2019-03-17T09:35:04.905Z,13.20
2019-03-17T09:36:07.408Z,13.20
2019-03-17T09:37:05.223Z,13.30
2019-03-17T09:38:05.192Z,13.30
2019-03-17T09:39:05.178Z,13.30
2019-03-17T09:40:05.152Z,13.30
2019-03-17T09:41:05.124Z,13.30
2019-03-17T09:42:05.167Z,13.30
2019-03-17T09:43:05.254Z,13.40
2019-03-17T09:44:05.613Z,13.30
2019-03-17T09:45:08.269Z,13.30
2019-03-17T09:46:05.165Z,13.30
2019-03-17T09:47:05.151Z,13.30
2019-03-17T09:48:05.180Z,13.30
2019-03-17T09:49:05.178Z,13.30
2019-03-17T09:50:07.821Z,13.20
2019-03-17T09:51:04.686Z,13.20
2019-03-17T09:52:04.675Z,13.20
2019-03-17T09:53:04.785Z,13.20
2019-03-17T09:54:04.775Z,13.20
2019-03-17T09:55:04.783Z,13.20
2019-03-17T09:56:07.491Z,13.20
2019-03-17T09:57:05.373Z,13.20
2019-03-17T09:58:08.015Z,13.30
2019-03-17T09:59:04.929Z,13.30
2019-03-17T10:00:07.551Z,13.30
2019-03-17T10:01:10.603Z,13.40
2019-03-17T10:02:05.496Z,13.40
2019-03-17T10:03:05.512Z,13.40
2019-03-17T10:04:05.551Z,13.50
2019-03-17T10:05:05.606Z,13.50
2019-03-17T10:06:04.697Z,13.50
2019-03-17T10:07:04.704Z,13.50
2019-03-17T10:08:04.702Z,13.60
2019-03-17T10:09:07.355Z,13.60
2019-03-17T10:10:05.231Z,13.70
2019-03-17T10:11:05.266Z,13.70
2019-03-17T10:12:07.790Z,13.70
2019-03-17T10:13:04.633Z,13.80
2019-03-17T10:14:07.325Z,13.70
2019-03-17T10:15:05.275Z,13.70
2019-03-17T10:16:07.774Z,13.60
2019-03-17T10:17:04.604Z,13.60
2019-03-17T10:18:05.617Z,13.60
2019-03-17T10:19:07.190Z,13.60
2019-03-17T10:20:07.635Z,13.60
2019-03-17T10:21:08.205Z,13.60
2019-03-17T10:22:07.725Z,13.60
2019-03-17T10:23:04.606Z,13.60
2019-03-17T10:24:04.654Z,13.60
2019-03-17T10:25:04.628Z,13.60
2019-03-17T10:26:04.631Z,13.60
2019-03-17T10:27:04.704Z,13.50
2019-03-17T10:28:04.743Z,13.50
2019-03-17T10:29:04.731Z,13.60
2019-03-17T10:30:04.771Z,13.60
2019-03-17T10:31:04.814Z,13.60
2019-03-17T10:32:07.336Z,13.50
2019-03-17T10:33:05.147Z,13.50
2019-03-17T10:34:05.159Z,13.50
2019-03-17T10:35:07.712Z,13.50
2019-03-17T10:36:08.130Z,13.60
2019-03-17T10:37:05.146Z,13.60
2019-03-17T10:38:07.647Z,13.60
2019-03-17T10:39:12.170Z,13.60
2019-03-17T10:40:04.782Z,13.70
2019-03-17T10:41:04.785Z,13.70
2019-03-17T10:42:04.814Z,13.70
2019-03-17T10:43:04.896Z,13.70
2019-03-17T10:44:07.827Z,13.70
2019-03-17T10:45:04.682Z,13.70
2019-03-17T10:46:04.825Z,13.70
2019-03-17T10:47:04.829Z,13.60
2019-03-17T10:48:04.824Z,13.60
2019-03-17T10:49:04.983Z,13.60
2019-03-17T10:50:05.125Z,13.50
2019-03-17T10:51:07.764Z,13.60
2019-03-17T10:52:04.604Z,13.60
2019-03-17T10:53:04.802Z,13.60
2019-03-17T10:54:04.822Z,13.60
2019-03-17T10:55:07.470Z,13.60
2019-03-17T10:56:05.371Z,13.60
2019-03-17T10:57:05.357Z,13.60
2019-03-17T10:58:05.407Z,13.60
2019-03-17T10:59:05.448Z,13.60
2019-03-17T11:00:04.603Z,13.60
2019-03-17T11:01:04.624Z,13.50
2019-03-17T11:02:04.650Z,13.60
2019-03-17T11:03:04.652Z,13.60
2019-03-17T11:04:07.157Z,13.70
2019-03-17T11:05:05.144Z,13.70
2019-03-17T11:06:07.777Z,13.80
2019-03-17T11:07:07.241Z,13.90
2019-03-17T11:08:12.666Z,13.90
2019-03-17T11:09:05.635Z,13.90
2019-03-17T11:10:07.435Z,14.10
2019-03-17T11:11:12.080Z,14.10
2019-03-17T11:12:05.107Z,14.20
2019-03-17T11:13:07.593Z,14.30
2019-03-17T11:14:07.950Z,14.30
2019-03-17T11:15:04.837Z,14.30
2019-03-17T11:16:05.004Z,14.40
2019-03-17T11:17:07.571Z,14.40
2019-03-17T11:18:05.478Z,14.40
2019-03-17T11:19:05.482Z,14.40
2019-03-17T11:20:05.496Z,14.30
2019-03-17T11:21:05.554Z,14.30
2019-03-17T11:22:05.593Z,14.30
2019-03-17T11:23:05.523Z,14.30
2019-03-17T11:24:05.535Z,14.20
2019-03-17T11:25:05.030Z,14.20
2019-03-17T11:26:10.200Z,14.20
2019-03-17T11:27:05.601Z,14.20
2019-03-17T11:28:05.774Z,14.20
2019-03-17T11:29:04.931Z,14.20
2019-03-17T11:30:04.871Z,14.30
2019-03-17T11:31:07.491Z,14.40
2019-03-17T11:32:06.644Z,14.40
2019-03-17T11:33:04.803Z,14.50
2019-03-17T11:34:04.926Z,14.50
2019-03-17T11:35:04.937Z,14.60
2019-03-17T11:36:04.879Z,14.60
2019-03-17T11:37:07.412Z,14.60
2019-03-17T11:38:05.274Z,14.70
2019-03-17T11:39:07.926Z,14.70
2019-03-17T11:40:07.315Z,14.70
2019-03-17T11:41:05.114Z,14.60
2019-03-17T11:42:07.749Z,14.70
2019-03-17T11:43:04.638Z,14.70
2019-03-17T11:44:07.715Z,14.80
2019-03-17T11:45:05.544Z,14.70
2019-03-17T11:46:05.536Z,14.80
2019-03-17T11:47:05.555Z,14.80
2019-03-17T11:48:05.584Z,14.80
2019-03-17T11:49:08.196Z,14.80
2019-03-17T11:50:05.095Z,14.80
2019-03-17T11:51:05.150Z,14.80
2019-03-17T11:52:07.762Z,14.70
2019-03-17T11:53:04.595Z,14.70
2019-03-17T11:54:05.711Z,14.70
2019-03-17T11:55:04.730Z,14.70
2019-03-17T11:56:04.788Z,14.60
2019-03-17T11:57:04.746Z,14.50
2019-03-17T11:58:04.820Z,14.50
2019-03-17T11:59:04.770Z,14.40
2019-03-17T12:00:04.757Z,14.40
2019-03-17T12:01:04.822Z,14.40
2019-03-17T12:02:04.804Z,14.30
2019-03-17T12:03:04.838Z,14.30
2019-03-17T12:04:07.483Z,14.20
2019-03-17T12:05:08.055Z,14.20
2019-03-17T12:06:04.907Z,14.30
2019-03-17T12:07:07.399Z,14.30
2019-03-17T12:08:07.830Z,14.30
2019-03-17T12:09:04.700Z,14.30
2019-03-17T12:10:04.761Z,14.40
2019-03-17T12:11:04.700Z,14.40
2019-03-17T12:12:07.340Z,14.40
2019-03-17T12:13:05.221Z,14.40
2019-03-17T12:14:05.199Z,14.40
2019-03-17T12:15:04.876Z,14.40
2019-03-17T12:16:04.867Z,14.50
2019-03-17T12:17:04.960Z,14.50
2019-03-17T12:18:05.052Z,14.60
2019-03-17T12:19:05.113Z,14.60
2019-03-17T12:20:07.712Z,14.60
2019-03-17T12:21:04.703Z,14.60
2019-03-17T12:22:09.217Z,14.60
2019-03-17T12:23:05.484Z,14.50
2019-03-17T12:24:05.418Z,14.50
2019-03-17T12:25:05.434Z,14.60
2019-03-17T12:26:08.038Z,14.50
2019-03-17T12:27:05.040Z,14.50
2019-03-17T12:28:05.127Z,14.50
2019-03-17T12:29:05.170Z,14.50
2019-03-17T12:30:05.244Z,14.40
2019-03-17T12:31:07.851Z,14.40
2019-03-17T12:32:04.716Z,14.40
2019-03-17T12:33:04.748Z,14.40
2019-03-17T12:34:04.716Z,14.30
2019-03-17T12:35:04.728Z,14.30
2019-03-17T12:36:04.674Z,14.30
2019-03-17T12:37:07.228Z,14.30
2019-03-17T12:38:07.723Z,14.30
2019-03-17T12:39:08.222Z,14.30
2019-03-17T12:40:05.135Z,14.30
2019-03-17T12:41:05.289Z,14.30
2019-03-17T12:42:07.851Z,14.30
2019-03-17T12:43:07.430Z,14.40
2019-03-17T12:44:05.293Z,14.30
2019-03-17T12:45:05.298Z,14.40
2019-03-17T12:46:07.856Z,14.40
2019-03-17T12:47:04.747Z,14.30
2019-03-17T12:48:04.742Z,14.30
2019-03-17T12:49:05.366Z,14.20
2019-03-17T12:50:05.435Z,14.20
2019-03-17T12:51:05.553Z,14.10
2019-03-17T12:52:05.527Z,14.10
2019-03-17T12:53:07.697Z,14.10
2019-03-17T12:54:07.640Z,14.00
2019-03-17T12:55:05.526Z,14.00
2019-03-17T12:56:05.493Z,13.90
2019-03-17T12:57:08.074Z,13.80
2019-03-17T12:58:04.963Z,13.80
2019-03-17T12:59:07.506Z,13.70
2019-03-17T13:00:05.347Z,13.70
2019-03-17T13:01:05.338Z,13.70
2019-03-17T13:02:05.385Z,13.60
2019-03-17T13:03:05.375Z,13.60
2019-03-17T13:04:07.865Z,13.60
2019-03-17T13:05:04.749Z,13.60